createdAt,value
2022-10-31T00:00:51.516Z,17.80
2022-10-31T00:02:54.154Z,14.75
2022-10-31T00:04:58.062Z,19.55
2022-10-31T00:07:00.612Z,11.70
2022-10-31T00:09:05.398Z,15.80
2022-10-31T00:11:10.661Z,13.95
2022-10-31T00:13:14.552Z,12.93
2022-10-31T00:15:17.424Z,12.50
2022-10-31T00:17:20.308Z,14.18
2022-10-31T00:19:22.880Z,11.75
2022-10-31T00:21:27.442Z,13.20
2022-10-31T00:23:30.383Z,8.70
2022-10-31T00:25:36.306Z,13.52
2022-10-31T00:27:38.863Z,15.77
2022-10-31T00:29:41.543Z,12.23
2022-10-31T00:31:44.210Z,16.42
2022-10-31T00:33:46.806Z,20.80
2022-10-31T00:35:51.749Z,18.88
2022-10-31T00:37:55.697Z,23.00
2022-10-31T00:39:58.232Z,23.13
2022-10-31T00:42:00.830Z,20.02
2022-10-31T00:44:03.391Z,22.45
2022-10-31T00:46:06.485Z,17.92
2022-10-31T00:48:09.067Z,15.35
2022-10-31T00:50:11.634Z,13.85
2022-10-31T00:52:14.202Z,17.23
2022-10-31T00:54:18.152Z,14.77
2022-10-31T00:56:20.761Z,12.55
2022-10-31T00:58:23.350Z,13.70
2022-10-31T01:00:25.913Z,14.75
2022-10-31T01:02:28.728Z,16.10
2022-10-31T01:04:31.423Z,15.65
2022-10-31T01:06:34.115Z,14.43
2022-10-31T01:08:37.367Z,13.65
2022-10-31T01:10:41.279Z,18.65
2022-10-31T01:12:46.532Z,14.65
2022-10-31T01:14:49.147Z,10.00
2022-10-31T01:16:51.746Z,13.00
2022-10-31T01:18:54.402Z,14.50
2022-10-31T01:21:01.467Z,17.48
2022-10-31T01:23:04.025Z,13.95
2022-10-31T01:25:08.071Z,13.18
2022-10-31T01:27:12.030Z,12.32
2022-10-31T01:29:14.702Z,15.52
2022-10-31T01:31:19.069Z,10.55
2022-10-31T01:33:21.686Z,11.27
2022-10-31T01:35:24.262Z,15.15
2022-10-31T01:37:26.889Z,12.25
2022-10-31T01:39:29.458Z,14.75
2022-10-31T01:41:35.615Z,13.73
2022-10-31T01:43:52.550Z,16.17
2022-10-31T01:45:56.498Z,18.27
2022-10-31T01:47:59.542Z,14.07
2022-10-31T01:50:06.375Z,16.30
2022-10-31T01:52:14.178Z,10.38
2022-10-31T01:54:23.089Z,12.15
2022-10-31T01:56:26.221Z,11.35
2022-10-31T01:58:33.041Z,11.02
2022-10-31T02:00:36.946Z,9.80
2022-10-31T02:02:40.024Z,15.70
2022-10-31T02:04:43.649Z,14.73
2022-10-31T02:06:51.700Z,13.10
2022-10-31T02:08:55.523Z,15.80
2022-10-31T02:11:00.034Z,12.57
2022-10-31T02:13:05.253Z,11.02
2022-10-31T02:15:09.317Z,14.45
2022-10-31T02:17:13.252Z,10.32
2022-10-31T02:19:24.737Z,13.60
2022-10-31T02:21:36.354Z,15.75
2022-10-31T02:24:20.898Z,16.58
2022-10-31T02:26:43.615Z,8.98
2022-10-31T02:29:12.495Z,14.20
2022-10-31T02:31:27.393Z,13.63
2022-10-31T02:33:37.259Z,19.02
2022-10-31T02:35:44.967Z,10.98
2022-10-31T02:37:53.181Z,14.70
2022-10-31T02:40:04.190Z,14.27
2022-10-31T02:42:15.322Z,19.50
2022-10-31T02:44:25.817Z,13.25
2022-10-31T02:46:36.543Z,16.90
2022-10-31T02:48:42.942Z,16.58
2022-10-31T02:50:52.192Z,17.85
2022-10-31T02:52:55.524Z,12.77
2022-10-31T02:54:58.378Z,14.63
2022-10-31T02:57:06.119Z,14.05
2022-10-31T02:59:08.684Z,12.80
2022-10-31T03:01:23.270Z,12.32
2022-10-31T03:03:35.859Z,13.43
2022-10-31T03:05:49.818Z,20.52
2022-10-31T03:07:59.941Z,12.57
2022-10-31T03:10:11.546Z,16.30
2022-10-31T03:12:21.909Z,14.02
2022-10-31T03:14:30.218Z,17.55
2022-10-31T03:16:42.302Z,13.18
2022-10-31T03:18:52.346Z,13.48
2022-10-31T03:21:01.719Z,11.65
2022-10-31T03:23:07.609Z,13.77
2022-10-31T03:25:11.599Z,15.90
2022-10-31T03:27:18.302Z,17.83
2022-10-31T03:29:24.783Z,15.80
2022-10-31T03:31:31.430Z,12.57
2022-10-31T03:33:37.951Z,13.93
2022-10-31T03:35:46.982Z,11.45
2022-10-31T03:37:53.679Z,14.45
2022-10-31T03:39:58.655Z,14.15
2022-10-31T03:42:07.442Z,13.05
2022-10-31T03:44:14.487Z,18.13
2022-10-31T03:46:17.107Z,15.80
2022-10-31T03:48:22.593Z,11.40
2022-10-31T03:50:29.607Z,12.23
2022-10-31T03:52:38.835Z,15.57
2022-10-31T03:54:45.345Z,10.80
2022-10-31T03:56:54.161Z,14.32
2022-10-31T03:59:01.947Z,9.15
2022-10-31T04:01:08.003Z,19.45
2022-10-31T04:03:15.255Z,18.45
2022-10-31T04:05:20.037Z,9.70
2022-10-31T04:07:25.575Z,14.25
2022-10-31T04:09:33.618Z,14.57
2022-10-31T04:11:40.251Z,9.02
2022-10-31T04:13:46.271Z,17.25
2022-10-31T04:15:51.173Z,14.45
2022-10-31T04:17:58.039Z,11.73
2022-10-31T04:20:01.895Z,15.93
2022-10-31T04:22:04.548Z,12.45
2022-10-31T04:24:07.842Z,11.60
2022-10-31T04:26:13.746Z,13.10
2022-10-31T04:28:16.448Z,14.18
2022-10-31T04:30:19.110Z,12.45
2022-10-31T04:32:21.691Z,14.40
2022-10-31T04:34:24.284Z,10.23
2022-10-31T04:36:26.882Z,23.05
2022-10-31T04:38:29.476Z,19.80
2022-10-31T04:40:32.182Z,19.00
2022-10-31T04:42:36.110Z,22.00
2022-10-31T04:44:38.687Z,21.23
2022-10-31T04:46:41.275Z,13.48
2022-10-31T04:48:43.852Z,13.73
2022-10-31T04:50:46.390Z,16.88
2022-10-31T04:52:49.538Z,15.23
2022-10-31T04:54:52.118Z,12.63
2022-10-31T04:56:54.684Z,14.73
2022-10-31T04:58:58.618Z,16.70
2022-10-31T05:01:01.185Z,18.70
2022-10-31T05:03:04.003Z,14.75
2022-10-31T05:05:07.562Z,14.25
2022-10-31T05:07:10.150Z,16.65
2022-10-31T05:09:12.733Z,15.20
2022-10-31T05:11:15.293Z,12.82
2022-10-31T05:13:17.935Z,14.85
2022-10-31T05:15:24.366Z,23.00
2022-10-31T05:17:26.942Z,11.68
2022-10-31T05:19:29.594Z,10.77
2022-10-31T05:21:32.143Z,14.50
2022-10-31T05:23:34.734Z,8.52
2022-10-31T05:25:37.338Z,16.30
2022-10-31T05:27:41.590Z,16.00
2022-10-31T05:29:44.181Z,10.45
2022-10-31T05:31:48.115Z,17.42
2022-10-31T05:33:50.671Z,14.88
2022-10-31T05:35:53.236Z,12.68
2022-10-31T05:37:56.260Z,16.15
2022-10-31T05:40:01.199Z,12.68
2022-10-31T05:42:06.215Z,9.60
2022-10-31T05:44:08.906Z,14.05
2022-10-31T05:46:11.482Z,12.00
2022-10-31T05:48:15.383Z,12.15
2022-10-31T05:50:18.088Z,16.85
2022-10-31T05:52:21.001Z,10.68
2022-10-31T05:54:23.646Z,13.15
2022-10-31T05:56:26.217Z,12.40
2022-10-31T05:58:30.033Z,15.20
2022-10-31T06:00:32.955Z,18.10
2022-10-31T06:02:35.643Z,20.70
2022-10-31T06:04:39.650Z,18.45
2022-10-31T06:06:42.361Z,20.85
2022-10-31T06:08:45.205Z,20.50
2022-10-31T06:10:47.797Z,17.45
2022-10-31T06:12:50.858Z,13.60
2022-10-31T06:14:53.510Z,17.67
2022-10-31T06:16:56.138Z,10.95
2022-10-31T06:18:58.794Z,16.45
2022-10-31T06:21:02.729Z,12.70
2022-10-31T06:23:05.821Z,15.10
2022-10-31T06:25:09.137Z,18.55
2022-10-31T06:27:11.681Z,11.60
2022-10-31T06:29:14.260Z,15.13
2022-10-31T06:31:16.886Z,12.80
2022-10-31T06:33:19.452Z,12.98
2022-10-31T06:35:22.079Z,15.13
2022-10-31T06:37:26.006Z,15.98
2022-10-31T06:39:28.553Z,15.00
2022-10-31T06:41:31.154Z,14.07
2022-10-31T06:43:34.219Z,22.63
2022-10-31T06:45:36.781Z,9.07
2022-10-31T06:47:56.755Z,14.50
2022-10-31T06:50:01.907Z,12.57
2022-10-31T06:52:05.093Z,10.00
2022-10-31T06:54:09.059Z,11.98
2022-10-31T06:56:11.633Z,10.70
2022-10-31T06:58:14.165Z,11.73
2022-10-31T07:00:17.474Z,13.02
2022-10-31T07:02:20.187Z,12.93
2022-10-31T07:04:23.615Z,16.65
2022-10-31T07:06:26.238Z,16.63
2022-10-31T07:08:28.826Z,13.15
2022-10-31T07:10:39.086Z,13.57
2022-10-31T07:14:45.616Z,17.95
2022-10-31T07:16:51.162Z,13.38
2022-10-31T07:18:53.735Z,12.25
2022-10-31T07:20:56.786Z,11.25
2022-10-31T07:23:00.226Z,10.95
2022-10-31T07:25:03.120Z,14.13
2022-10-31T07:27:07.030Z,15.65
2022-10-31T07:29:09.723Z,11.02
2022-10-31T07:31:12.286Z,12.38
2022-10-31T07:33:14.854Z,17.02
2022-10-31T07:35:19.935Z,14.80
2022-10-31T07:37:22.499Z,14.52
2022-10-31T07:39:25.038Z,12.73
2022-10-31T07:41:27.757Z,15.30
2022-10-31T07:43:31.673Z,17.40
2022-10-31T07:45:34.241Z,16.08
2022-10-31T07:47:40.385Z,12.45
2022-10-31T07:49:42.946Z,15.13
2022-10-31T07:51:46.552Z,16.90
2022-10-31T07:53:49.332Z,10.45
2022-10-31T07:55:52.657Z,13.27
2022-10-31T07:57:59.946Z,15.18
2022-10-31T08:00:04.860Z,14.80
2022-10-31T08:02:07.945Z,16.33
2022-10-31T08:04:10.510Z,17.98
2022-10-31T08:06:13.079Z,17.50
2022-10-31T08:08:16.543Z,9.13
2022-10-31T08:10:19.203Z,12.18
2022-10-31T08:12:21.910Z,10.32
2022-10-31T08:14:24.498Z,15.73
2022-10-31T08:16:28.603Z,20.38
2022-10-31T08:18:31.955Z,12.18
2022-10-31T08:20:34.868Z,10.70
2022-10-31T08:22:42.871Z,12.90
2022-10-31T08:24:46.382Z,12.10
2022-10-31T08:26:49.214Z,12.73
2022-10-31T08:28:52.287Z,11.38
2022-10-31T08:30:54.863Z,15.57
2022-10-31T08:33:03.785Z,14.93
2022-10-31T08:35:06.903Z,16.20
2022-10-31T08:37:09.479Z,13.10
2022-10-31T08:39:12.071Z,11.25
2022-10-31T08:41:14.717Z,15.60
2022-10-31T08:43:18.995Z,9.98
2022-10-31T08:45:21.575Z,15.57
2022-10-31T08:47:24.177Z,14.73
2022-10-31T08:49:28.109Z,11.18
2022-10-31T08:51:30.674Z,10.40
2022-10-31T08:53:33.585Z,12.85
2022-10-31T08:55:37.672Z,13.90
2022-10-31T08:57:40.271Z,12.90
2022-10-31T08:59:42.837Z,14.68
2022-10-31T09:01:47.086Z,9.63
2022-10-31T09:03:49.753Z,19.98
2022-10-31T09:05:57.773Z,20.27
2022-10-31T09:08:02.138Z,17.67
2022-10-31T09:10:05.286Z,16.48
2022-10-31T09:12:07.921Z,16.80
2022-10-31T09:14:10.511Z,21.80
2022-10-31T09:16:13.135Z,16.55
2022-10-31T09:18:18.775Z,19.65
2022-10-31T09:20:21.577Z,11.23
2022-10-31T09:22:25.596Z,23.75
2022-10-31T09:24:28.132Z,16.48
2022-10-31T09:26:31.571Z,18.63
2022-10-31T09:28:34.239Z,14.60
2022-10-31T09:30:37.554Z,20.33
2022-10-31T09:32:40.125Z,13.65
2022-10-31T09:34:42.718Z,15.20
2022-10-31T09:36:46.914Z,17.52
2022-10-31T09:38:50.908Z,14.85
2022-10-31T09:41:00.088Z,13.43
2022-10-31T09:43:15.078Z,13.85
2022-10-31T09:45:22.362Z,18.33
2022-10-31T09:47:35.772Z,22.77
2022-10-31T09:49:53.256Z,13.05
2022-10-31T09:52:12.347Z,13.43
2022-10-31T09:54:20.610Z,15.70
2022-10-31T09:56:25.208Z,18.42
2022-10-31T09:58:31.273Z,16.25
2022-10-31T10:00:37.023Z,11.05
2022-10-31T10:02:47.301Z,16.42
2022-10-31T10:04:56.202Z,10.80
2022-10-31T10:07:00.941Z,11.02
2022-10-31T10:09:04.735Z,15.45
2022-10-31T10:11:26.865Z,16.48
2022-10-31T10:13:42.920Z,15.30
2022-10-31T10:16:01.647Z,20.27
2022-10-31T10:18:14.397Z,18.33
2022-10-31T10:20:27.696Z,14.30
2022-10-31T10:22:38.408Z,19.33
2022-10-31T10:24:56.810Z,14.95
2022-10-31T10:27:12.135Z,26.17
2022-10-31T10:29:34.942Z,13.52
2022-10-31T10:31:42.280Z,15.63
2022-10-31T10:33:54.986Z,18.52
2022-10-31T10:36:01.429Z,13.57
2022-10-31T10:38:16.753Z,16.60
2022-10-31T10:40:22.909Z,18.83
2022-10-31T10:42:46.443Z,18.30
2022-10-31T10:45:09.624Z,16.15
2022-10-31T10:47:30.084Z,16.73
2022-10-31T10:49:37.813Z,12.75
2022-10-31T10:51:58.201Z,13.23
2022-10-31T10:54:15.727Z,26.40
2022-10-31T10:56:23.766Z,18.60
2022-10-31T10:58:27.694Z,17.05
2022-10-31T11:00:33.528Z,17.23
2022-10-31T11:02:36.168Z,18.70
2022-10-31T11:04:42.428Z,16.60
2022-10-31T11:06:45.086Z,17.27
2022-10-31T11:08:50.720Z,15.55
2022-10-31T11:11:00.946Z,17.50
2022-10-31T11:13:08.694Z,22.13
2022-10-31T11:15:22.623Z,19.73
2022-10-31T11:17:31.938Z,21.40
2022-10-31T11:19:34.514Z,24.85
2022-10-31T11:21:37.082Z,18.73
2022-10-31T11:23:39.647Z,17.60
2022-10-31T11:25:50.371Z,16.48
2022-10-31T11:28:01.404Z,11.30
2022-10-31T11:30:08.771Z,17.50
2022-10-31T11:32:21.526Z,14.70
2022-10-31T11:34:31.853Z,14.63
2022-10-31T11:36:37.746Z,17.00
2022-10-31T11:38:43.583Z,13.68
2022-10-31T11:40:55.418Z,16.40
2022-10-31T11:45:08.172Z,20.83
2022-10-31T11:47:16.362Z,16.17
2022-10-31T11:49:25.575Z,19.40
2022-10-31T11:51:31.130Z,17.45
2022-10-31T11:53:35.920Z,15.63
2022-10-31T11:55:40.786Z,17.85
2022-10-31T11:57:46.355Z,17.67
2022-10-31T11:59:53.446Z,12.50
2022-10-31T12:01:57.810Z,18.67
2022-10-31T12:04:08.191Z,10.48
2022-10-31T12:06:18.795Z,19.15
2022-10-31T12:08:22.021Z,10.73
2022-10-31T12:10:33.092Z,16.35
2022-10-31T12:12:45.725Z,13.95
2022-10-31T12:14:58.228Z,16.20
2022-10-31T12:17:08.956Z,13.68
2022-10-31T12:19:21.012Z,13.98
2022-10-31T12:21:40.292Z,15.55
2022-10-31T12:23:56.878Z,12.13
2022-10-31T12:26:11.680Z,15.25
2022-10-31T12:28:44.869Z,11.70
2022-10-31T12:31:01.304Z,15.48
2022-10-31T12:33:22.313Z,11.73
2022-10-31T12:35:46.308Z,11.98
2022-10-31T12:38:05.304Z,15.05
2022-10-31T12:40:29.926Z,12.70
2022-10-31T12:42:50.535Z,11.30
2022-10-31T12:45:20.045Z,13.77
2022-10-31T12:47:41.217Z,12.18
2022-10-31T12:49:56.285Z,13.07
2022-10-31T12:52:11.102Z,12.52
2022-10-31T12:54:30.257Z,14.32
2022-10-31T12:56:46.651Z,17.60
2022-10-31T12:58:55.467Z,13.48
2022-10-31T13:01:09.199Z,20.60
2022-10-31T13:03:23.364Z,11.20
2022-10-31T13:05:32.082Z,20.17
2022-10-31T13:07:44.198Z,13.48
2022-10-31T13:09:57.205Z,12.45
2022-10-31T13:12:06.295Z,13.30
2022-10-31T13:14:16.248Z,16.23
2022-10-31T13:16:21.658Z,14.70
2022-10-31T13:18:32.128Z,10.73
2022-10-31T13:20:40.742Z,14.77
2022-10-31T13:22:46.643Z,18.70
2022-10-31T13:24:57.648Z,16.40
2022-10-31T13:27:03.371Z,19.67
2022-10-31T13:29:15.567Z,15.75
2022-10-31T13:31:18.262Z,15.25
2022-10-31T13:33:26.957Z,14.07
2022-10-31T13:35:36.507Z,12.65
2022-10-31T13:37:43.429Z,20.95
2022-10-31T13:40:07.872Z,14.35
2022-10-31T13:42:22.184Z,16.50
2022-10-31T13:44:26.851Z,16.38
2022-10-31T13:46:38.582Z,14.55
2022-10-31T13:50:58.181Z,11.48
2022-10-31T13:53:20.862Z,12.80
2022-10-31T13:55:42.862Z,11.88
2022-10-31T13:59:54.929Z,18.45
2022-10-31T14:01:59.032Z,18.52
2022-10-31T14:04:14.929Z,13.13
2022-10-31T14:06:25.090Z,14.70
2022-10-31T14:08:27.816Z,18.17
2022-10-31T14:10:33.061Z,14.05
2022-10-31T14:12:40.360Z,16.05
2022-10-31T14:14:49.889Z,17.55
2022-10-31T14:16:58.639Z,12.27
2022-10-31T14:19:04.206Z,21.83
2022-10-31T14:21:17.202Z,14.15
2022-10-31T14:23:41.145Z,12.80
2022-10-31T14:25:43.746Z,13.10
2022-10-31T14:27:49.049Z,12.60
2022-10-31T14:29:51.894Z,14.95
2022-10-31T14:31:57.431Z,13.50
2022-10-31T14:34:00.558Z,13.48
2022-10-31T14:36:10.320Z,14.68
2022-10-31T14:38:46.411Z,14.25
2022-10-31T14:41:03.136Z,16.10
2022-10-31T14:43:35.645Z,13.73
2022-10-31T14:45:48.603Z,14.80
2022-10-31T14:48:06.985Z,14.07
2022-10-31T14:50:32.584Z,17.13
2022-10-31T14:52:38.157Z,17.10
2022-10-31T14:54:46.244Z,18.13
2022-10-31T14:56:52.707Z,16.20
2022-10-31T14:58:59.776Z,16.40
2022-10-31T15:01:02.579Z,21.08
2022-10-31T15:03:16.370Z,11.35
2022-10-31T15:05:20.173Z,15.10
2022-10-31T15:07:25.394Z,15.13
2022-10-31T15:09:30.858Z,12.95
2022-10-31T15:11:39.509Z,11.48
2022-10-31T15:13:47.404Z,16.88
2022-10-31T15:15:52.955Z,25.83
2022-10-31T15:17:59.726Z,16.88
2022-10-31T15:20:02.840Z,16.20
2022-10-31T15:22:06.074Z,12.18
2022-10-31T15:24:16.711Z,14.25
2022-10-31T15:26:21.855Z,9.20
2022-10-31T15:28:26.569Z,12.90
2022-10-31T15:30:31.022Z,12.25
2022-10-31T15:32:35.503Z,16.15
2022-10-31T15:34:41.710Z,13.45
2022-10-31T15:36:44.354Z,12.98
2022-10-31T15:38:47.054Z,17.70
2022-10-31T15:40:56.396Z,14.00
2022-10-31T15:43:02.307Z,10.73
2022-10-31T15:45:18.141Z,9.75
2022-10-31T15:47:23.314Z,13.68
2022-10-31T15:49:36.168Z,30.40
2022-10-31T15:51:39.783Z,34.22
2022-10-31T15:53:46.909Z,27.50
2022-10-31T15:55:54.179Z,22.92
2022-10-31T15:58:00.116Z,33.55
2022-10-31T16:00:03.084Z,34.67
2022-10-31T16:02:12.221Z,55.88
2022-10-31T16:04:24.284Z,57.08
2022-10-31T16:06:28.502Z,49.65
2022-10-31T16:08:35.500Z,59.72
2022-10-31T16:10:38.149Z,51.72
2022-10-31T16:12:47.927Z,79.40
2022-10-31T16:14:51.897Z,125.60
2022-10-31T16:16:57.395Z,98.88
2022-10-31T16:19:02.421Z,100.25
2022-10-31T16:21:06.376Z,96.85
2022-10-31T16:23:18.443Z,102.10
2022-10-31T16:25:27.917Z,90.28
2022-10-31T16:27:33.090Z,91.22
2022-10-31T16:29:45.424Z,91.65
2022-10-31T16:31:47.951Z,82.30
2022-10-31T16:33:50.576Z,80.72
2022-10-31T16:36:04.112Z,90.22
2022-10-31T16:38:12.291Z,76.30
2022-10-31T16:40:17.121Z,70.25
2022-10-31T16:42:19.701Z,71.70
2022-10-31T16:44:25.043Z,60.55
2022-10-31T16:46:29.141Z,50.85
2022-10-31T16:48:31.757Z,46.72
2022-10-31T16:50:35.024Z,53.00
2022-10-31T16:52:38.601Z,47.97
2022-10-31T16:54:56.209Z,46.60
2022-10-31T16:57:01.853Z,47.53
2022-10-31T16:59:12.066Z,44.55
2022-10-31T17:01:18.062Z,49.58
2022-10-31T17:03:20.962Z,47.15
2022-10-31T17:05:29.953Z,37.67
2022-10-31T17:07:32.558Z,44.65
2022-10-31T17:09:35.134Z,37.10
2022-10-31T17:11:37.968Z,35.03
2022-10-31T17:13:42.036Z,42.63
2022-10-31T17:15:47.828Z,40.85
2022-10-31T17:17:50.754Z,72.93
2022-10-31T17:19:53.320Z,69.10
2022-10-31T17:21:55.981Z,59.92
2022-10-31T17:23:58.549Z,38.28
2022-10-31T17:26:01.433Z,52.22
2022-10-31T17:28:04.840Z,50.45
2022-10-31T17:30:10.192Z,49.45
2022-10-31T17:32:12.855Z,49.13
2022-10-31T17:34:15.406Z,39.08
2022-10-31T17:36:18.071Z,36.47
2022-10-31T17:38:20.683Z,40.30
2022-10-31T17:40:23.417Z,39.72
2022-10-31T17:42:26.101Z,29.25
2022-10-31T17:44:28.831Z,31.83
2022-10-31T17:46:32.761Z,37.20
2022-10-31T17:48:37.257Z,36.15
2022-10-31T17:50:40.077Z,34.88
2022-10-31T17:52:42.664Z,41.67
2022-10-31T17:54:45.251Z,41.83
2022-10-31T17:56:47.827Z,36.85
2022-10-31T17:58:50.402Z,38.20
2022-10-31T18:00:52.945Z,39.35
2022-10-31T18:02:57.043Z,30.55
2022-10-31T18:05:02.171Z,33.63
2022-10-31T18:07:05.576Z,33.55
2022-10-31T18:09:10.513Z,38.80
2022-10-31T18:11:16.905Z,37.92
2022-10-31T18:13:19.446Z,38.92
2022-10-31T18:15:22.185Z,41.90
2022-10-31T18:17:24.781Z,61.15
2022-10-31T18:19:28.707Z,95.85
2022-10-31T18:21:31.822Z,72.22
2022-10-31T18:23:34.482Z,75.97
2022-10-31T18:25:38.791Z,94.32
2022-10-31T18:27:41.352Z,94.30
2022-10-31T18:29:44.105Z,89.70
2022-10-31T18:31:48.460Z,124.57
2022-10-31T18:33:53.622Z,94.25
2022-10-31T18:35:57.923Z,107.95
2022-10-31T18:38:03.113Z,111.32
2022-10-31T18:40:07.026Z,146.52
2022-10-31T18:42:09.554Z,178.02
2022-10-31T18:44:12.143Z,139.98
2022-10-31T18:46:17.088Z,134.43
2022-10-31T18:48:19.639Z,141.05
2022-10-31T18:50:23.471Z,131.02
2022-10-31T18:52:27.414Z,136.93
2022-10-31T18:54:30.230Z,102.65
2022-10-31T18:56:32.870Z,91.75
2022-10-31T18:58:35.770Z,101.43
2022-10-31T19:00:38.529Z,91.70
2022-10-31T19:02:41.237Z,100.18
2022-10-31T19:04:43.797Z,83.72
2022-10-31T19:06:46.368Z,86.32
2022-10-31T19:08:50.290Z,98.03
2022-10-31T19:10:52.880Z,101.57
2022-10-31T19:12:55.426Z,80.55
2022-10-31T19:14:58.046Z,85.82
2022-10-31T19:17:02.335Z,47.97
2022-10-31T19:19:05.349Z,39.78
2022-10-31T19:21:09.044Z,31.67
2022-10-31T19:23:11.608Z,34.60
2022-10-31T19:25:15.677Z,27.35
2022-10-31T19:27:18.242Z,27.48
2022-10-31T19:29:20.800Z,27.92
2022-10-31T19:31:23.960Z,28.75
2022-10-31T19:33:33.411Z,24.00
2022-10-31T19:35:38.659Z,24.13
2022-10-31T19:37:42.384Z,27.27
2022-10-31T19:39:45.048Z,22.70
2022-10-31T19:41:48.957Z,27.15
2022-10-31T19:43:51.706Z,20.33
2022-10-31T19:45:55.705Z,27.98
2022-10-31T19:47:58.776Z,22.00
2022-10-31T19:50:01.510Z,27.70
2022-10-31T19:52:04.105Z,32.47
2022-10-31T19:54:07.208Z,33.20
2022-10-31T19:56:12.924Z,28.27
2022-10-31T19:58:16.968Z,26.17
2022-10-31T20:00:19.874Z,21.40
2022-10-31T20:02:22.474Z,22.85
2022-10-31T20:04:25.115Z,25.50
2022-10-31T20:06:29.744Z,22.55
2022-10-31T20:08:37.042Z,25.38
2022-10-31T20:10:41.975Z,24.23
2022-10-31T20:12:44.537Z,22.55
2022-10-31T20:14:50.282Z,22.35
2022-10-31T20:16:54.390Z,19.80
2022-10-31T20:18:59.439Z,28.30
2022-10-31T20:21:05.009Z,19.55
2022-10-31T20:23:07.832Z,25.30
2022-10-31T20:25:10.383Z,18.60
2022-10-31T20:27:12.935Z,29.85
2022-10-31T20:29:16.814Z,20.02
2022-10-31T20:31:27.412Z,29.52
2022-10-31T20:33:29.973Z,31.58
2022-10-31T20:35:32.502Z,41.85
2022-10-31T20:37:35.117Z,32.85
2022-10-31T20:39:37.790Z,31.02
2022-10-31T20:41:40.364Z,27.13
2022-10-31T20:43:43.001Z,27.50
2022-10-31T20:45:45.609Z,36.00
2022-10-31T20:47:49.511Z,33.38
2022-10-31T20:49:52.119Z,21.63
2022-10-31T20:51:54.651Z,25.60
2022-10-31T20:53:58.935Z,20.90
2022-10-31T20:56:06.953Z,21.00
2022-10-31T20:58:10.205Z,21.90
2022-10-31T21:00:18.543Z,27.23
2022-10-31T21:02:21.209Z,25.85
2022-10-31T21:04:25.409Z,29.23
2022-10-31T21:06:29.329Z,29.55
2022-10-31T21:08:32.887Z,34.10
2022-10-31T21:10:35.478Z,32.10
2022-10-31T21:12:40.467Z,33.90
2022-10-31T21:14:43.096Z,28.77
2022-10-31T21:16:45.718Z,23.85
2022-10-31T21:18:50.249Z,26.02
2022-10-31T21:20:54.390Z,34.03
2022-10-31T21:22:56.981Z,26.77
2022-10-31T21:25:00.960Z,30.77
2022-10-31T21:27:08.452Z,28.48
2022-10-31T21:29:15.322Z,25.92
2022-10-31T21:31:18.942Z,29.15
2022-10-31T21:33:21.522Z,22.90
2022-10-31T21:35:24.235Z,30.00
2022-10-31T21:37:28.168Z,27.48
2022-10-31T21:39:30.796Z,26.20
2022-10-31T21:41:33.420Z,28.13
2022-10-31T21:43:36.845Z,29.52
2022-10-31T21:45:39.503Z,25.83
2022-10-31T21:47:42.211Z,20.48
2022-10-31T21:49:45.391Z,24.63
2022-10-31T21:51:48.031Z,22.05
2022-10-31T21:54:09.698Z,17.73
2022-10-31T21:56:12.341Z,22.90
2022-10-31T21:58:14.963Z,21.67
2022-10-31T22:00:18.021Z,18.80
2022-10-31T22:02:20.703Z,20.65
2022-10-31T22:04:23.562Z,20.38
2022-10-31T22:06:27.350Z,23.52
2022-10-31T22:08:30.224Z,31.45
2022-10-31T22:10:34.829Z,20.92
2022-10-31T22:12:38.976Z,24.48
2022-10-31T22:16:45.560Z,21.33
2022-10-31T22:18:48.717Z,22.15
2022-10-31T22:20:51.370Z,19.23
2022-10-31T22:22:54.059Z,25.85
2022-10-31T22:24:56.798Z,25.48
2022-10-31T22:27:00.766Z,21.35
2022-10-31T22:29:05.625Z,33.40
2022-10-31T22:31:09.002Z,26.10
2022-10-31T22:33:11.655Z,30.50
2022-10-31T22:35:14.242Z,24.33
2022-10-31T22:37:19.724Z,21.70
2022-10-31T22:39:22.617Z,22.42
2022-10-31T22:41:27.044Z,19.98
2022-10-31T22:43:30.962Z,22.25
2022-10-31T22:45:33.504Z,23.02
2022-10-31T22:47:36.097Z,20.83
2022-10-31T22:49:38.681Z,24.40
2022-10-31T22:51:42.199Z,22.95
2022-10-31T22:53:45.175Z,26.42
2022-10-31T22:55:50.166Z,19.70
2022-10-31T22:57:52.761Z,29.02
2022-10-31T22:59:56.658Z,22.30
2022-10-31T23:01:59.386Z,23.02
2022-10-31T23:04:02.780Z,21.42
2022-10-31T23:06:07.356Z,22.30
2022-10-31T23:08:09.949Z,19.98
2022-10-31T23:10:14.577Z,27.48
2022-10-31T23:12:31.108Z,24.42
2022-10-31T23:14:33.813Z,25.33
2022-10-31T23:16:39.167Z,30.63
2022-10-31T23:18:50.226Z,32.92
2022-10-31T23:20:53.354Z,25.35
2022-10-31T23:22:56.931Z,25.48
2022-10-31T23:24:59.564Z,32.60
2022-10-31T23:27:09.613Z,22.33
2022-10-31T23:29:11.322Z,28.85
2022-10-31T23:33:17.947Z,25.35
2022-10-31T23:35:20.938Z,25.38
2022-10-31T23:37:25.871Z,25.08
2022-10-31T23:39:28.555Z,22.25
2022-10-31T23:41:31.244Z,23.27
2022-10-31T23:43:33.833Z,21.98
2022-10-31T23:45:36.530Z,19.30
2022-10-31T23:47:43.237Z,17.77
2022-10-31T23:49:47.545Z,25.02
2022-10-31T23:51:50.241Z,25.88
2022-10-31T23:53:52.920Z,21.90
2022-10-31T23:55:55.991Z,25.58
2022-10-31T23:57:58.615Z,21.08
